Time;durP1;ratioP1;P1;durP2;ratioP2;P2;SDS_P1;SDS_P2;PMS_P1;PMS_P2;Temp;Humidity;BMP_temperature;BMP_pressure;BME280_temperature;BME280_humidity;BME280_pressure;Samples;Min_cycle;Max_cycle;Signal;HPM_P1;HPM_P2
2022/05/04 00:01:08;;;;;;;;;16.00;15.25;;;;;16.17;92.80;101346.28;6180203;23;46701;-96
2022/05/04 00:03:42;;;;;;;;;17.75;15.00;;;;;16.10;93.08;101325.75;6107018;23;45477;-96
2022/05/04 00:06:34;;;;;;;;;18.25;15.75;;;;;16.07;93.19;101315.97;6091012;23;45797;-95
2022/05/04 00:09:10;;;;;;;;;17.50;17.25;;;;;16.12;92.89;101332.00;6026783;23;45601;-95
2022/05/04 00:11:44;;;;;;;;;16.25;12.25;;;;;16.07;93.22;101329.19;6094505;23;47492;-95
2022/05/04 00:14:37;;;;;;;;;;;;;;;;;;;;;
2022/05/04 00:17:08;;;;;;;;;19.50;17.75;;;;;15.96;93.31;101299.69;6178689;23;68730;-95
2022/05/04 00:19:36;;;;;;;;;18.00;18.00;;;;;15.90;93.60;101287.16;6178252;23;45446;-95
2022/05/04 00:22:25;;;;;;;;;16.50;14.00;;;;;15.97;93.91;101297.13;6179741;23;47128;-95
2022/05/04 00:25:21;;;;;;;;;;;;;;;;;;;;;
2022/05/04 00:28:05;;;;;;;;;21.50;14.50;;;;;15.86;94.04;101278.22;6168517;23;68608;-94
2022/05/04 00:31:01;;;;;;;;;17.75;13.75;;;;;15.94;93.85;101291.72;6178218;23;45547;-96
2022/05/04 00:34:17;;;;;;;;;16.00;14.75;;;;;15.84;94.33;101284.31;6177372;23;47051;-96
2022/05/04 00:36:49;;;;;;;;;19.50;15.50;;;;;15.72;94.38;101274.25;6119268;23;45936;-96
2022/05/04 00:39:43;;;;;;;;;22.25;18.50;;;;;15.74;94.97;101269.91;6120229;23;45398;-94
2022/05/04 00:43:14;;;;;;;;;;;;;;;;;;;;;
2022/05/04 00:45:42;;;;;;;;;20.50;17.75;;;;;15.63;94.79;101274.84;6114392;23;74537;-95
2022/05/04 00:48:10;;;;;;;;;21.50;16.00;;;;;15.63;95.05;101273.09;6148674;23;45734;-96
2022/05/04 00:50:42;;;;;;;;;22.50;18.75;;;;;15.59;95.35;101271.16;6150906;23;45194;-96
2022/05/04 00:53:50;;;;;;;;;18.00;15.50;;;;;15.60;95.59;101266.78;6149030;23;45480;-96
2022/05/04 00:56:39;;;;;;;;;17.25;15.50;;;;;15.55;95.63;101263.09;6090434;23;46853;-96
2022/05/04 01:00:14;;;;;;;;;21.00;15.50;;;;;15.56;95.78;101276.38;6066388;23;45470;-96
2022/05/04 01:06:14;;;;;;;;;15.50;13.50;;;;;15.40;95.98;101264.38;6033436;23;45416;-96
2022/05/04 01:09:32;;;;;;;;;;;;;;;;;;;;;
2022/05/04 01:12:44;;;;;;;;;16.75;13.75;;;;;15.46;96.49;101279.56;5918833;24;72794;-96
2022/05/04 01:15:53;;;;;;;;;14.00;12.33;;;;;15.24;96.64;101258.56;5893248;23;45469;-96
2022/05/04 01:19:01;;;;;;;;;19.25;17.00;;;;;15.30;96.87;101272.00;5846937;24;45540;-96
2022/05/04 01:26:02;;;;;;;;;17.00;15.25;;;;;15.18;97.07;101269.81;5914229;24;44764;-96
2022/05/04 01:49:54;;;;;;;;;20.50;16.00;;;;;15.11;99.16;101243.13;6295602;22;45388;-96
2022/05/04 01:52:59;;;;;;;;;19.50;18.25;;;;;15.18;98.87;101266.28;6277647;22;45483;-95
2022/05/04 01:55:25;;;;;;;;;22.75;17.75;;;;;15.13;99.22;101257.28;6269638;22;47023;-96
2022/05/04 01:57:56;;;;;;;;;21.00;18.00;;;;;15.03;99.18;101246.41;6277638;22;45390;-96
2022/05/04 02:00:22;;;;;;;;;18.25;14.75;;;;;15.07;99.45;101253.63;6278371;22;45440;-96
2022/05/04 02:03:02;;;;;;;;;14.75;14.75;;;;;14.95;99.81;101235.56;6278213;22;45314;-95
2022/05/04 02:06:10;;;;;;;;;;;;;;;;;;;;;
2022/05/04 02:08:50;;;;;;;;;19.75;17.25;;;;;14.91;99.70;101238.94;6302632;22;71973;-95
2022/05/04 02:11:35;;;;;;;;;22.00;18.25;;;;;15.00;99.77;101248.06;6278527;22;45329;-96
2022/05/04 02:14:06;;;;;;;;;16.00;13.25;;;;;14.96;99.92;101247.03;6274973;22;45378;-96
2022/05/04 02:16:32;;;;;;;;;21.50;16.25;;;;;14.86;99.98;101243.16;6276133;22;46985;-95
2022/05/04 02:19:17;;;;;;;;;22.50;15.75;;;;;14.85;100.00;101241.31;6277252;22;45382;-96
2022/05/04 02:21:54;;;;;;;;;18.25;15.00;;;;;14.77;100.00;101234.84;6275346;22;45361;-95
2022/05/04 02:24:22;;;;;;;;;20.25;16.50;;;;;14.66;99.93;101226.56;6278545;22;45383;-96
2022/05/04 02:26:55;;;;;;;;;20.50;15.50;;;;;14.70;100.00;101244.31;6277469;22;47312;-96
2022/05/04 02:30:02;;;;;;;;;;;;;;;;;;;;;
2022/05/04 02:32:52;;;;;;;;;22.75;19.25;;;;;14.55;100.00;101215.59;6304847;22;68634;-96
2022/05/04 02:38:25;;;;;;;;;17.75;12.25;;;;;14.58;100.00;101232.47;6305891;22;45456;-95
2022/05/04 02:45:40;;;;;;;;;;;;;;;;;;;;;
2022/05/04 02:48:38;;;;;;;;;18.50;15.25;;;;;14.52;100.00;101226.97;6293767;22;69845;-95
2022/05/04 02:51:07;;;;;;;;;17.75;14.75;;;;;14.42;100.00;101209.88;6179756;23;46877;-96
2022/05/04 02:54:08;;;;;;;;;20.25;15.75;;;;;14.45;100.00;101223.19;6183082;22;45677;-96
2022/05/04 02:56:42;;;;;;;;;20.25;16.50;;;;;14.36;100.00;101214.91;6203904;22;45338;-95
2022/05/04 02:59:54;;;;;;;;;26.00;18.50;;;;;14.29;100.00;101196.22;6198930;22;45453;-96
2022/05/04 03:03:18;;;;;;;;;;;;;;;;;;;;;
2022/05/04 03:06:40;;;;;;;;;;;;;;;;;;;;;
2022/05/04 03:09:32;;;;;;;;;18.75;16.75;;;;;14.18;100.00;101182.59;6029486;23;70300;-95
2022/05/04 03:11:58;;;;;;;;;17.75;17.50;;;;;14.13;100.00;101176.25;6005479;23;45459;-96
2022/05/04 03:14:25;;;;;;;;;20.00;17.00;;;;;14.16;100.00;101180.75;6033647;23;47471;-96
2022/05/04 03:20:31;;;;;;;;;;;;;;;;;;;;;
2022/05/04 03:22:59;;;;;;;;;22.00;15.75;;;;;14.19;100.00;101183.50;6004172;23;69878;-96
2022/05/04 03:25:37;;;;;;;;;;;;;;;;;;;;;
2022/05/04 03:28:09;;;;;;;;;17.75;15.25;;;;;14.12;100.00;101173.56;6035108;23;73207;-96
2022/05/04 03:30:37;;;;;;;;;21.50;18.75;;;;;14.16;100.00;101186.03;6063932;23;44947;-96
2022/05/04 03:33:13;;;;;;;;;22.00;17.50;;;;;14.11;100.00;101177.03;6062926;23;45175;-96
2022/05/04 03:50:12;;;;;;;;;14.25;14.25;;;;;13.93;100.00;101162.31;5957876;23;46230;-96
2022/05/04 03:52:41;;;;;;;;;26.50;21.25;;;;;13.97;100.00;101158.94;5900483;24;45427;-96
2022/05/04 03:55:38;;;;;;;;;21.75;17.00;;;;;13.90;100.00;101147.25;5898554;24;45412;-96
2022/05/04 04:05:19;;;;;;;;;;;;;;;;;;;;;
2022/05/04 04:08:29;;;;;;;;;19.25;15.50;;;;;13.95;100.00;101165.91;5950092;23;69072;-96
2022/05/04 04:15:20;;;;;;;;;23.00;17.75;;;;;13.76;100.00;101151.13;5970648;23;45448;-94
2022/05/04 04:17:55;;;;;;;;;21.00;19.25;;;;;13.74;100.00;101164.22;5913741;24;45340;-95
2022/05/04 04:24:29;;;;;;;;;18.50;17.75;;;;;13.58;100.00;101162.75;5862438;24;45119;-96
2022/05/04 04:27:32;;;;;;;;;24.75;20.00;;;;;13.58;100.00;101168.03;5871034;24;47200;-96
2022/05/04 04:30:53;;;;;;;;;24.50;17.75;;;;;13.57;100.00;101166.22;5897633;24;45425;-96
2022/05/04 04:33:22;;;;;;;;;;;;;;;;;;;;;
2022/05/04 04:35:58;;;;;;;;;18.00;17.75;;;;;13.51;100.00;101166.81;5895713;24;68808;-96
2022/05/04 04:38:32;;;;;;;;;28.50;23.00;;;;;13.43;100.00;101161.25;5874184;24;47742;-95
2022/05/04 04:41:24;;;;;;;;;18.50;18.50;;;;;13.52;100.00;101179.19;5879731;23;45533;-96
2022/05/04 04:44:20;;;;;;;;;18.25;16.25;;;;;13.45;100.00;101180.66;5952562;23;45361;-96
2022/05/04 04:47:01;;;;;;;;;17.75;15.25;;;;;13.43;100.00;101163.88;5928514;23;45223;-96
2022/05/04 04:49:58;;;;;;;;;21.75;15.50;;;;;13.49;100.00;101187.88;5952540;23;47091;-96
2022/05/04 04:53:17;;;;;;;;;24.00;17.50;;;;;13.44;100.00;101170.06;6031556;23;45527;-96
2022/05/04 04:59:55;;;;;;;;;23.50;17.00;;;;;13.57;100.00;101195.22;5988406;23;45986;-96
2022/05/04 05:03:05;;;;;;;;;;;;;;;;;;;;;
2022/05/04 05:18:38;;;;;;;;;19.50;18.50;;;;;13.51;100.00;101185.28;6297995;22;45431;-96
2022/05/04 05:21:49;;;;;;;;;;;;;;;;;;;;;
2022/05/04 05:24:29;;;;;;;;;21.75;13.25;;;;;13.58;100.00;101194.41;6306036;22;75541;-94
2022/05/04 05:27:22;;;;;;;;;18.75;16.50;;;;;13.47;100.00;101171.09;6276658;22;45464;-94
2022/05/04 05:29:55;;;;;;;;;23.00;20.50;;;;;13.52;100.00;101185.38;6155657;23;45458;-94
2022/05/04 05:32:45;;;;;;;;;19.00;17.50;;;;;13.67;100.00;101201.75;6181529;23;45449;-95
2022/05/04 05:35:17;;;;;;;;;25.75;14.00;;;;;13.59;100.00;101180.34;6144627;23;46677;-96
2022/05/04 05:37:50;;;;;;;;;20.25;17.00;;;;;13.63;100.00;101188.44;6182358;23;45452;-95
2022/05/04 05:40:15;;;;;;;;;20.75;17.25;;;;;13.69;100.00;101192.16;6202284;22;45478;-96
2022/05/04 05:42:41;;;;;;;;;19.50;16.50;;;;;13.74;100.00;101201.16;6211303;22;45337;-95
2022/05/04 05:45:07;;;;;;;;;19.25;16.00;;;;;13.77;100.00;101206.56;6212435;22;47451;-96
2022/05/04 05:47:41;;;;;;;;;20.00;17.50;;;;;13.82;100.00;101201.47;6186648;22;45506;-95
2022/05/04 05:50:08;;;;;;;;;25.25;17.25;;;;;13.81;100.00;101197.03;6187702;22;45476;-96
2022/05/04 05:52:41;;;;;;;;;21.75;18.50;;;;;14.02;100.00;101217.19;6182873;22;45471;-96
2022/05/04 05:55:20;;;;;;;;;20.75;18.00;;;;;14.05;100.00;101212.91;6183023;22;47201;-94
2022/05/04 05:57:48;;;;;;;;;20.50;15.75;;;;;14.12;100.00;101219.31;6183641;22;45401;-94
2022/05/04 06:00:21;;;;;;;;;22.50;17.25;;;;;14.21;100.00;101224.06;6185331;22;45528;-94
2022/05/04 06:02:50;;;;;;;;;24.00;20.00;;;;;14.13;100.00;101212.31;6236513;22;44841;-96
2022/05/04 06:05:31;;;;;;;;;23.00;18.25;;;;;14.22;100.00;101225.88;6235953;22;45060;-94
2022/05/04 06:08:09;;;;;;;;;21.00;16.00;;;;;14.24;100.00;101223.28;6303196;22;44626;-94
2022/05/04 06:18:23;;;;;;;;;21.75;17.25;;;;;14.56;100.00;101225.34;6191176;22;45425;-96
2022/05/04 06:20:48;;;;;;;;;21.75;18.25;;;;;14.66;100.00;101240.69;6178955;23;45349;-96
2022/05/04 06:23:14;;;;;;;;;18.50;17.00;;;;;14.68;100.00;101254.84;6152359;23;45488;-93
2022/05/04 06:25:41;;;;;;;;;20.00;16.50;;;;;14.68;100.00;101256.59;6175397;23;46943;-83
2022/05/04 06:28:06;;;;;;;;;35.25;21.00;;;;;14.74;100.00;101268.25;6173931;22;45623;-83
2022/05/04 06:36:14;;;;;;;;;21.00;16.50;;;;;15.00;100.00;101275.38;6193135;23;45409;-83
2022/05/04 06:38:39;;;;;;;;;22.00;20.25;;;;;15.07;100.00;101277.41;6185831;23;45280;-83
2022/05/04 06:41:07;;;;;;;;;26.00;22.75;;;;;15.19;100.00;101278.66;6179128;22;45336;-83
2022/05/04 06:43:32;;;;;;;;;24.75;18.00;;;;;15.24;100.00;101276.19;6171354;23;45231;-83
2022/05/04 06:45:58;;;;;;;;;25.25;19.00;;;;;15.30;100.00;101273.75;6175058;23;45362;-82
2022/05/04 06:48:24;;;;;;;;;19.50;15.75;;;;;15.37;100.00;101277.50;6176439;22;45205;-82
2022/05/04 06:50:49;;;;;;;;;24.50;18.75;;;;;15.38;100.00;101282.88;6172845;23;45723;-84
2022/05/04 06:53:15;;;;;;;;;23.50;17.50;;;;;15.43;100.00;101269.78;6169580;23;58310;-84
2022/05/04 06:55:40;;;;;;;;;19.50;17.25;;;;;15.49;100.00;101269.97;6172333;23;45353;-83
2022/05/04 06:58:06;;;;;;;;;20.00;17.75;;;;;15.60;100.00;101286.22;6171020;23;45406;-83
2022/05/04 07:00:31;;;;;;;;;27.00;21.25;;;;;15.66;100.00;101287.25;6170758;23;45850;-83
2022/05/04 07:02:56;;;;;;;;;24.50;17.00;;;;;15.72;100.00;101283.06;6169154;23;48601;-84
2022/05/04 07:05:22;;;;;;;;;21.25;18.25;;;;;15.76;100.00;101284.06;6172314;23;46255;-84
2022/05/04 07:07:48;;;;;;;;;23.50;18.00;;;;;15.78;100.00;101290.31;6171320;22;45269;-84
2022/05/04 07:10:14;;;;;;;;;21.50;19.25;;;;;15.81;100.00;101295.72;6173204;23;45330;-84
2022/05/04 07:12:39;;;;;;;;;24.25;18.75;;;;;15.81;100.00;101292.16;6171161;23;45311;-83
2022/05/04 07:15:05;;;;;;;;;24.75;17.75;;;;;15.83;100.00;101308.97;6170166;23;45721;-84
2022/05/04 07:17:30;;;;;;;;;21.50;19.50;;;;;15.80;100.00;101295.63;6171774;22;45289;-84
2022/05/04 07:19:55;;;;;;;;;27.00;19.00;;;;;15.79;100.00;101296.50;6172404;23;45696;-84
2022/05/04 07:22:23;;;;;;;;;19.00;18.50;;;;;15.78;100.00;101297.34;6170224;23;45246;-84
2022/05/04 07:24:50;;;;;;;;;17.25;13.75;;;;;15.77;100.00;101295.56;6169902;23;45612;-84
2022/05/04 07:27:15;;;;;;;;;19.75;17.00;;;;;15.74;100.00;101296.38;6169940;23;45362;-85
2022/05/04 07:29:42;;;;;;;;;20.75;17.75;;;;;15.71;100.00;101304.19;6173531;23;45326;-92
2022/05/04 07:32:08;;;;;;;;;29.25;21.50;;;;;15.68;100.00;101301.44;6221064;22;45497;-91
2022/05/04 07:34:33;;;;;;;;;23.75;19.25;;;;;15.61;100.00;101298.59;6170796;23;47136;-91
2022/05/04 07:36:59;;;;;;;;;19.50;15.25;;;;;15.60;100.00;101302.09;6163230;23;45791;-90
2022/05/04 07:42:26;;;;;;;;;23.50;20.25;;;;;15.68;100.00;101304.09;6172203;23;45364;-90
2022/05/04 07:45:00;;;;;;;;;21.00;15.50;;;;;15.63;100.00;101307.50;6169757;23;48257;-91
2022/05/04 07:47:32;;;;;;;;;21.75;18.50;;;;;15.58;100.00;101311.72;6171633;23;45476;-90
2022/05/04 07:49:57;;;;;;;;;19.75;15.25;;;;;15.58;100.00;101316.13;6168551;23;45619;-90
2022/05/04 07:52:23;;;;;;;;;23.50;19.75;;;;;15.54;100.00;101307.16;6170425;23;45376;-90
2022/05/04 07:54:49;;;;;;;;;23.25;19.25;;;;;15.52;100.00;101308.84;6167798;22;47027;-91
2022/05/04 07:57:15;;;;;;;;;28.00;17.50;;;;;15.53;100.00;101290.41;6170657;23;45634;-91
2022/05/04 07:59:40;;;;;;;;;23.75;20.75;;;;;15.53;100.00;101298.34;6170491;23;45355;-91
2022/05/04 08:04:50;;;;;;;;;18.75;18.75;;;;;15.62;100.00;101303.03;6172255;23;45288;-85
2022/05/04 08:07:17;;;;;;;;;27.00;20.25;;;;;15.68;100.00;101306.72;6172427;22;45381;-85
2022/05/04 08:09:42;;;;;;;;;23.25;20.75;;;;;15.72;100.00;101303.34;6170721;23;45384;-85
2022/05/04 08:12:11;;;;;;;;;28.25;23.00;;;;;15.77;100.00;101312.31;6171669;23;45270;-85
2022/05/04 08:14:36;;;;;;;;;29.50;23.25;;;;;15.82;100.00;101304.56;6169669;23;47868;-86
2022/05/04 08:17:02;;;;;;;;;27.75;22.25;;;;;15.85;100.00;101304.63;6170098;23;45600;-85
2022/05/04 08:19:27;;;;;;;;;28.00;22.75;;;;;15.93;100.00;101310.19;6171138;23;45274;-86
2022/05/04 08:21:54;;;;;;;;;29.75;19.00;;;;;16.00;100.00;101321.88;6170615;23;45329;-85
2022/05/04 08:24:20;;;;;;;;;21.25;18.50;;;;;16.08;100.00;101320.41;6172022;23;46138;-85
2022/05/04 08:26:45;;;;;;;;;20.25;18.25;;;;;16.17;100.00;101327.75;6170127;23;45395;-85
2022/05/04 08:29:11;;;;;;;;;24.50;22.50;;;;;16.26;100.00;101327.16;6172885;23;45387;-85
2022/05/04 08:31:38;;;;;;;;;22.50;20.50;;;;;16.37;100.00;101335.41;6172999;22;45478;-86
2022/05/04 08:34:03;;;;;;;;;15.25;11.75;;;;;16.46;100.00;101330.41;6195417;22;47126;-86
2022/05/04 08:36:28;;;;;;;;;27.25;20.25;;;;;16.53;100.00;101334.13;6168787;23;45985;-85
2022/05/04 08:38:54;;;;;;;;;17.75;15.75;;;;;16.65;100.00;101344.19;6174777;23;45308;-86
2022/05/04 08:41:22;;;;;;;;;26.25;23.00;;;;;16.78;100.00;101349.84;6173778;23;52974;-86
2022/05/04 08:43:50;;;;;;;;;22.75;18.75;;;;;16.92;100.00;101356.47;6171497;22;46102;-85
2022/05/04 08:46:16;;;;;;;;;25.00;21.75;;;;;17.15;100.00;101350.91;6171568;23;45746;-84
2022/05/04 08:48:43;;;;;;;;;27.50;22.25;;;;;17.41;100.00;101342.81;6173424;22;45500;-86
2022/05/04 08:51:10;;;;;;;;;26.00;21.50;;;;;17.80;100.00;101353.50;6173422;22;45285;-85
2022/05/04 08:53:37;;;;;;;;;24.50;19.00;;;;;18.20;100.00;101353.59;6173285;22;45620;-85
2022/05/04 08:56:03;;;;;;;;;20.50;17.75;;;;;18.51;100.00;101353.41;6169468;23;45764;-85
2022/05/04 08:58:30;;;;;;;;;24.50;20.25;;;;;18.77;100.00;101370.78;6168772;23;45712;-85
2022/05/04 09:00:55;;;;;;;;;24.25;22.25;;;;;18.99;100.00;101392.53;6170563;23;45595;-85
2022/05/04 09:03:21;;;;;;;;;27.50;21.00;;;;;19.12;100.00;101392.75;6173294;22;45524;-85
2022/05/04 09:05:48;;;;;;;;;26.25;22.25;;;;;19.27;100.00;101381.56;6172624;22;45656;-85
2022/05/04 09:08:13;;;;;;;;;30.50;24.00;;;;;19.41;100.00;101395.09;6169253;22;45376;-87
2022/05/04 09:10:44;;;;;;;;;29.75;24.00;;;;;19.57;100.00;101398.06;6169930;23;45411;-86
2022/05/04 09:13:10;;;;;;;;;26.75;23.50;;;;;19.82;100.00;101402.06;6172509;22;46864;-86
2022/05/04 09:15:38;;;;;;;;;34.25;24.00;;;;;20.11;99.83;101406.09;6173549;22;45434;-86
2022/05/04 09:18:09;;;;;;;;;24.50;19.75;;;;;20.38;98.70;101420.78;6169656;23;45296;-86
2022/05/04 09:20:48;;;;;;;;;23.25;20.50;;;;;20.60;98.37;101428.16;6172798;22;45298;-87
2022/05/04 09:23:16;;;;;;;;;32.00;21.00;;;;;20.73;97.72;101430.16;6173769;22;46036;-87
2022/05/04 09:25:42;;;;;;;;;24.00;22.00;;;;;20.79;96.93;101448.00;6172611;22;45539;-87
2022/05/04 09:28:13;;;;;;;;;23.33;16.67;;;;;20.91;96.63;101455.28;6170942;23;45395;-87
2022/05/04 09:30:59;;;;;;;;;28.75;24.00;;;;;20.93;96.37;101448.19;6172950;22;45388;-86
2022/05/04 09:33:29;;;;;;;;;23.33;23.00;;;;;20.93;95.90;101442.84;6172496;23;45320;-87
2022/05/04 09:35:56;;;;;;;;;25.75;18.75;;;;;21.01;95.41;101437.66;6172953;22;45353;-86
2022/05/04 09:46:43;;;;;;;;;24.50;23.75;;;;;21.90;94.54;101442.19;6172560;23;45304;-86
2022/05/04 09:49:10;;;;;;;;;27.50;23.75;;;;;22.15;93.71;101448.66;6169399;23;45641;-88
2022/05/04 09:51:37;;;;;;;;;27.00;24.25;;;;;22.33;93.00;101447.00;6166304;23;45509;-87
2022/05/04 09:54:18;;;;;;;;;24.00;22.00;;;;;22.49;92.15;101460.47;6166710;23;46992;-86
2022/05/04 09:56:49;;;;;;;;;22.25;19.75;;;;;23.46;93.56;101430.59;6171436;22;45794;-86
2022/05/04 09:59:17;;;;;;;;;25.00;19.67;;;;;24.39;92.12;101461.09;6168890;23;45654;-87
2022/05/04 10:01:44;;;;;;;;;20.00;16.33;;;;;25.36;92.16;101458.09;6166479;23;45550;-85
2022/05/04 10:04:10;;;;;;;;;22.67;17.33;;;;;26.86;90.63;101477.53;6168356;23;48024;-87
2022/05/04 10:06:36;;;;;;;;;25.67;19.00;;;;;28.83;91.26;101479.97;6168827;23;45718;-86
2022/05/04 10:09:06;;;;;;;;;20.33;17.67;;;;;30.82;88.54;101504.19;6170979;22;45745;-87
2022/05/04 10:11:34;;;;;;;;;15.67;10.67;;;;;32.62;84.50;101527.56;6171475;23;45440;-86
2022/05/04 10:14:09;;;;;;;;;21.67;15.67;;;;;34.29;82.44;101538.41;6167429;23;48006;-86
2022/05/04 10:16:41;;;;;;;;;12.67;9.00;;;;;35.75;78.19;101562.75;6170267;22;46068;-87
2022/05/04 10:19:13;;;;;;;;;19.67;14.00;;;;;36.32;73.42;101577.25;6169154;23;45258;-87
2022/05/04 10:21:43;;;;;;;;;16.00;15.00;;;;;36.16;69.22;101587.22;6171264;22;45371;-88
2022/05/04 10:24:09;;;;;;;;;16.67;15.67;;;;;36.36;69.13;101588.94;6171162;22;45253;-87
2022/05/04 10:26:36;;;;;;;;;15.67;14.67;;;;;36.85;67.37;101584.59;6172550;23;45320;-86
2022/05/04 10:32:31;;;;;;;;;17.67;15.33;;;;;38.73;62.40;101594.16;6174341;23;45312;-88
2022/05/04 10:35:17;;;;;;;;;16.00;13.00;;;;;38.66;61.44;101599.13;6171200;23;48250;-86
2022/05/04 10:37:53;;;;;;;;;16.33;13.67;;;;;38.71;59.47;101594.25;6167831;23;45365;-85
2022/05/04 10:40:27;;;;;;;;;13.00;10.00;;;;;38.19;58.34;101590.94;6172090;23;45591;-86
2022/05/04 10:43:05;;;;;;;;;11.00;10.00;;;;;39.13;57.99;101603.63;6170209;22;45414;-85
2022/05/04 10:45:33;;;;;;;;;15.33;13.00;;;;;40.38;59.06;101603.78;6172361;23;45478;-85
2022/05/04 10:48:17;;;;;;;;;11.00;9.67;;;;;42.14;56.57;101609.66;6169522;23;45490;-85
2022/05/04 10:50:52;;;;;;;;;9.67;8.00;;;;;43.55;55.53;101612.41;6171403;23;45487;-87
2022/05/04 10:53:42;;;;;;;;;7.67;6.67;;;;;44.62;53.84;101614.56;6171298;22;45329;-85
2022/05/04 10:56:10;;;;;;;;;13.00;10.00;;;;;45.17;50.97;101630.03;6168975;23;47129;-85
2022/05/04 10:58:43;;;;;;;;;10.00;9.00;;;;;45.07;49.51;101618.91;6169324;23;45290;-85
2022/05/04 11:01:29;;;;;;;;;9.67;7.33;;;;;44.94;48.71;101619.13;6170028;22;45374;-87
2022/05/04 11:03:54;;;;;;;;;9.00;8.00;;;;;45.20;48.07;101626.13;6169754;22;45267;-86
2022/05/04 11:06:35;;;;;;;;;9.67;9.00;;;;;45.65;45.68;101621.16;6171883;23;46420;-87
2022/05/04 11:09:10;;;;;;;;;6.67;5.67;;;;;45.60;46.08;101618.81;6171659;23;45343;-88
2022/05/04 11:11:36;;;;;;;;;10.33;7.33;;;;;44.84;45.37;101613.53;6172078;23;45317;-87
2022/05/04 11:14:04;;;;;;;;;9.67;9.67;;;;;44.09;45.50;101615.31;6169481;23;45524;-87
2022/05/04 11:16:30;;;;;;;;;1.00;0.00;;;;;43.56;44.83;101608.63;6171515;22;46114;-88
2022/05/04 11:18:58;;;;;;;;;7.33;6.00;;;;;43.44;44.44;101605.91;6171918;23;45591;-88
2022/05/04 11:21:26;;;;;;;;;4.33;4.33;;;;;43.93;45.01;101603.78;6170075;23;45302;-88
2022/05/04 11:23:56;;;;;;;;;8.00;8.00;;;;;44.46;44.41;101595.66;6170037;23;45361;-87
2022/05/04 11:26:24;;;;;;;;;10.00;8.00;;;;;45.29;43.13;101600.31;6171978;23;46626;-88
2022/05/04 11:28:51;;;;;;;;;5.50;5.50;;;;;46.16;43.32;101598.00;6169494;23;46193;-88
2022/05/04 11:31:18;;;;;;;;;6.67;5.67;;;;;47.19;42.17;101590.91;6171813;23;45321;-88
2022/05/04 11:33:45;;;;;;;;;9.33;8.00;;;;;48.16;42.33;101601.69;6174415;22;45453;-88
2022/05/04 11:36:11;;;;;;;;;7.00;7.00;;;;;48.84;40.41;101596.41;6173878;23;46596;-88
2022/05/04 11:38:37;;;;;;;;;8.67;8.00;;;;;49.33;40.54;101609.91;6170658;23;45822;-88
2022/05/04 11:41:04;;;;;;;;;9.33;7.33;;;;;47.35;38.23;101596.81;6173704;22;45358;-88
2022/05/04 11:43:33;;;;;;;;;8.33;5.67;;;;;47.53;40.26;101596.88;6173726;23;45351;-87
2022/05/04 11:46:04;;;;;;;;;4.00;4.00;;;;;48.02;39.71;101603.97;6172099;23;46449;-87
2022/05/04 11:48:30;;;;;;;;;5.00;5.00;;;;;48.56;38.95;101598.53;6173738;22;45429;-87
2022/05/04 11:50:55;;;;;;;;;4.00;4.00;;;;;49.31;38.59;101591.44;6174224;22;45371;-88
2022/05/04 11:53:20;;;;;;;;;5.67;3.67;;;;;49.90;38.16;101583.19;6171761;23;45373;-87
2022/05/04 11:55:46;;;;;;;;;3.33;3.33;;;;;50.18;37.25;101582.84;6167900;23;46153;-87
2022/05/04 11:58:13;;;;;;;;;5.00;5.00;;;;;49.90;37.34;101585.13;6171707;22;45236;-86
2022/05/04 12:00:40;;;;;;;;;3.33;3.00;;;;;48.77;36.60;101575.84;6174212;23;45610;-88
2022/05/04 12:03:06;;;;;;;;;4.00;4.00;;;;;46.92;36.93;101569.53;6170740;23;45524;-86
2022/05/04 12:05:33;;;;;;;;;5.00;3.67;;;;;45.33;36.51;101567.69;6197964;22;47253;-86
2022/05/04 12:07:59;;;;;;;;;3.33;3.33;;;;;43.94;37.74;101584.28;6168387;23;45662;-85
2022/05/04 12:10:25;;;;;;;;;3.33;3.33;;;;;43.38;37.77;101578.78;6172682;22;45438;-85
2022/05/04 12:12:51;;;;;;;;;3.33;3.33;;;;;42.88;37.91;101571.75;6172672;22;45319;-85
2022/05/04 12:15:17;;;;;;;;;4.00;3.00;;;;;42.35;38.33;101573.09;6171826;23;47347;-85
2022/05/04 12:17:42;;;;;;;;;2.00;2.00;;;;;41.65;38.85;101571.91;6173030;22;45319;-85
2022/05/04 12:20:08;;;;;;;;;4.00;3.00;;;;;40.77;39.24;101565.31;6173406;22;45349;-85
2022/05/04 12:22:36;;;;;;;;;3.00;3.00;;;;;39.89;39.42;101579.50;6173586;22;45341;-85
2022/05/04 12:25:04;;;;;;;;;1.67;1.33;;;;;39.89;39.52;101582.25;6172434;23;48363;-86
2022/05/04 12:27:32;;;;;;;;;2.00;2.00;;;;;40.50;39.96;101570.88;6173941;23;45393;-87
2022/05/04 12:35:28;;;;;;;;;2.67;2.00;;;;;41.55;40.39;101569.84;6173460;23;45296;-87
2022/05/04 12:37:54;;;;;;;;;3.00;1.67;;;;;43.20;40.77;101564.59;6171080;22;45602;-86
2022/05/04 12:40:20;;;;;;;;;1.00;1.00;;;;;44.67;40.05;101565.22;6173118;23;45307;-86
2022/05/04 12:42:46;;;;;;;;;1.00;1.00;;;;;45.71;39.63;101550.41;6170289;22;45382;-87
2022/05/04 12:45:18;;;;;;;;;1.33;1.33;;;;;46.55;38.38;101552.69;6170533;23;47266;-87
2022/05/04 12:47:44;;;;;;;;;1.00;1.00;;;;;47.43;37.24;101546.91;6170149;23;45349;-87
2022/05/04 12:50:10;;;;;;;;;3.00;3.00;;;;;46.54;36.17;101550.94;6173713;22;45275;-87
2022/05/04 12:52:39;;;;;;;;;2.00;2.00;;;;;45.63;36.04;101546.47;6168856;23;45437;-87
2022/05/04 12:55:05;;;;;;;;;0.00;0.00;;;;;44.27;36.09;101555.78;6171140;23;45343;-86
2022/05/04 12:57:31;;;;;;;;;4.00;2.67;;;;;44.38;37.04;101554.84;6171726;22;45685;-87
2022/05/04 12:59:56;;;;;;;;;0.33;0.33;;;;;45.72;36.98;101561.34;6171875;22;45238;-88
2022/05/04 13:02:21;;;;;;;;;2.67;1.00;;;;;47.16;37.27;101543.13;6170424;23;45448;-87
2022/05/04 13:04:47;;;;;;;;;1.00;1.00;;;;;48.37;35.84;101548.47;6167835;23;47275;-87
2022/05/04 13:07:12;;;;;;;;;2.00;1.00;;;;;48.53;35.60;101541.28;6170589;22;45402;-86
2022/05/04 13:09:38;;;;;;;;;0.00;0.00;;;;;46.76;34.87;101544.16;6172680;23;45375;-87
2022/05/04 13:12:04;;;;;;;;;0.00;0.00;;;;;46.45;36.05;101537.94;6170048;23;45279;-87
2022/05/04 13:14:29;;;;;;;;;0.00;0.00;;;;;47.67;35.81;101539.84;6170129;23;48498;-86
2022/05/04 13:16:55;;;;;;;;;2.33;1.00;;;;;47.47;34.52;101536.38;6169488;23;45375;-87
2022/05/04 13:19:20;;;;;;;;;3.00;2.00;;;;;45.63;34.25;101529.84;6171647;23;45539;-87
2022/05/04 13:21:45;;;;;;;;;1.00;1.00;;;;;43.59;34.94;101527.38;6169344;23;45752;-88
2022/05/04 13:24:11;;;;;;;;;0.00;0.00;;;;;41.57;35.70;101522.88;6170222;23;47922;-86
2022/05/04 13:26:36;;;;;;;;;1.33;1.33;;;;;40.00;36.09;101517.44;6171387;23;45455;-86
2022/05/04 13:29:02;;;;;;;;;0.67;0.67;;;;;38.67;37.08;101514.03;6168433;23;45461;-87
2022/05/04 13:31:29;;;;;;;;;1.67;1.67;;;;;37.23;37.98;101527.88;6172396;22;45356;-86
2022/05/04 13:33:55;;;;;;;;;1.67;0.33;;;;;35.82;38.57;101525.13;6170022;23;47899;-87
2022/05/04 13:36:20;;;;;;;;;0.33;0.33;;;;;35.10;40.06;101514.91;6171308;22;45461;-86
2022/05/04 13:38:46;;;;;;;;;1.00;1.00;;;;;35.62;40.35;101516.06;6170968;23;45284;-87
2022/05/04 13:41:12;;;;;;;;;1.00;0.00;;;;;35.59;40.18;101513.47;6171151;22;45389;-86
2022/05/04 13:43:37;;;;;;;;;3.00;1.67;;;;;35.99;40.15;101515.22;6168783;23;48064;-87
2022/05/04 13:46:03;;;;;;;;;1.67;1.67;;;;;37.14;40.60;101498.31;6170264;23;45365;-87
2022/05/04 13:48:28;;;;;;;;;0.00;0.00;;;;;37.67;40.14;101501.69;6168488;23;45525;-87
2022/05/04 13:53:54;;;;;;;;;1.33;1.33;;;;;37.17;39.45;101506.31;6108667;23;46398;-87
2022/05/04 13:56:19;;;;;;;;;2.33;1.00;;;;;36.33;39.20;101502.53;6108803;23;45359;-86
2022/05/04 13:58:45;;;;;;;;;1.33;1.33;;;;;36.16;40.65;101502.53;6107340;23;45428;-87
2022/05/04 14:01:10;;;;;;;;;1.00;0.00;;;;;36.70;40.77;101498.78;6108510;23;45414;-86
2022/05/04 14:03:36;;;;;;;;;1.00;1.00;;;;;36.13;40.26;101508.16;6109377;23;45316;-87
2022/05/04 14:06:02;;;;;;;;;0.00;0.00;;;;;35.13;40.64;101501.09;6109520;23;45644;-86